createdAt,value
2022-08-05T00:01:27.406Z,21.57
2022-08-05T00:03:57.055Z,21.60
2022-08-05T00:06:32.236Z,21.62
2022-08-05T00:09:00.643Z,21.63
2022-08-05T00:11:34.668Z,21.64
2022-08-05T00:14:12.077Z,21.64
2022-08-05T00:16:53.674Z,21.71
2022-08-05T00:19:24.904Z,21.79
2022-08-05T00:21:59.974Z,21.80
2022-08-05T00:24:30.927Z,21.83
2022-08-05T00:27:01.799Z,21.88
2022-08-05T00:29:37.646Z,21.86
2022-08-05T00:32:13.343Z,21.84
2022-08-05T00:35:04.095Z,21.80
2022-08-05T00:37:50.987Z,21.75
2022-08-05T00:40:27.299Z,21.72
2022-08-05T00:42:59.891Z,21.67
2022-08-05T00:45:38.986Z,21.63
2022-08-05T00:48:15.659Z,21.63
2022-08-05T00:50:46.096Z,21.56
2022-08-05T00:53:44.908Z,21.50
2022-08-05T00:56:04.294Z,21.44
2022-08-05T00:58:31.185Z,21.42
2022-08-05T01:00:58.054Z,21.39
2022-08-05T01:03:31.023Z,21.33
2022-08-05T01:06:00.450Z,21.30
2022-08-05T01:08:41.801Z,21.24
2022-08-05T01:11:24.447Z,21.30
2022-08-05T01:14:52.235Z,21.28
2022-08-05T01:17:53.642Z,21.23
2022-08-05T01:20:27.136Z,21.16
2022-08-05T01:22:57.444Z,21.09
2022-08-05T01:26:01.753Z,21.16
2022-08-05T01:28:45.038Z,21.10
2022-08-05T01:31:29.771Z,21.11
2022-08-05T01:34:12.422Z,21.13
2022-08-05T01:36:47.056Z,21.10
2022-08-05T01:39:45.768Z,21.08
2022-08-05T01:42:06.828Z,21.12
2022-08-05T01:44:39.225Z,21.11
2022-08-05T01:47:09.993Z,21.08
2022-08-05T01:50:00.503Z,21.07
2022-08-05T01:52:28.092Z,21.06
2022-08-05T01:55:02.295Z,21.08
2022-08-05T01:58:10.300Z,21.08
2022-08-05T02:00:30.240Z,21.07
2022-08-05T02:03:04.489Z,21.11
2022-08-05T02:05:36.601Z,21.08
2022-08-05T02:08:05.025Z,21.05
2022-08-05T02:10:45.002Z,21.17
2022-08-05T02:13:18.938Z,21.17
2022-08-05T02:15:54.266Z,21.15
2022-08-05T02:18:31.307Z,21.16
2022-08-05T02:21:15.550Z,21.19
2022-08-05T02:23:46.460Z,21.09
2022-08-05T02:26:21.778Z,21.09
2022-08-05T02:28:50.227Z,21.11
2022-08-05T02:31:38.419Z,21.19
2022-08-05T02:34:10.120Z,21.15
2022-08-05T02:36:39.320Z,21.23
2022-08-05T02:39:09.273Z,21.15
2022-08-05T02:41:58.164Z,21.20
2022-08-05T02:44:25.850Z,21.21
2022-08-05T02:47:00.449Z,21.28
2022-08-05T02:49:36.658Z,21.30
2022-08-05T02:52:08.672Z,21.32
2022-08-05T02:54:41.510Z,21.37
2022-08-05T02:58:10.618Z,21.39
2022-08-05T03:00:01.378Z,21.37
2022-08-05T03:02:36.602Z,21.40
2022-08-05T03:05:05.227Z,21.38
2022-08-05T03:08:00.705Z,21.39
2022-08-05T03:10:21.961Z,21.41
2022-08-05T03:12:53.587Z,21.42
2022-08-05T03:15:23.558Z,21.43
2022-08-05T03:17:54.197Z,21.45
2022-08-05T03:20:23.635Z,21.45
2022-08-05T03:22:52.570Z,21.47
2022-08-05T03:25:32.683Z,21.49
2022-08-05T03:28:02.307Z,21.50
2022-08-05T03:30:34.567Z,21.51
2022-08-05T03:33:07.267Z,21.59
2022-08-05T03:35:40.774Z,21.57
2022-08-05T03:38:12.087Z,21.62
2022-08-05T03:40:45.366Z,21.72
2022-08-05T03:43:58.722Z,21.72
2022-08-05T03:46:02.850Z,21.80
2022-08-05T03:48:30.615Z,21.85
2022-08-05T03:52:39.166Z,22.01
2022-08-05T03:55:53.543Z,22.04
2022-08-05T03:57:16.247Z,22.07
2022-08-05T04:00:16.676Z,22.23
2022-08-05T04:02:58.611Z,22.21
2022-08-05T04:05:34.619Z,22.27
2022-08-05T04:08:29.759Z,22.28
2022-08-05T04:10:55.094Z,22.28
2022-08-05T04:13:22.129Z,22.30
2022-08-05T04:15:52.702Z,22.33
2022-08-05T04:18:30.479Z,22.34
2022-08-05T04:20:58.203Z,22.36
2022-08-05T04:23:57.189Z,22.37
2022-08-05T04:26:15.617Z,22.40
2022-08-05T04:28:51.136Z,22.36
2022-08-05T04:31:19.922Z,22.33
2022-08-05T04:34:18.259Z,22.28
2022-08-05T04:36:46.163Z,22.24
2022-08-05T04:39:18.615Z,22.22
2022-08-05T04:41:46.292Z,22.20
2022-08-05T04:44:20.979Z,22.19
2022-08-05T04:46:51.160Z,22.20
2022-08-05T04:49:24.673Z,22.20
2022-08-05T04:52:05.540Z,22.20
2022-08-05T04:54:34.605Z,22.20
2022-08-05T04:57:01.605Z,22.18
2022-08-05T04:59:38.924Z,22.16
2022-08-05T05:02:37.593Z,22.15
2022-08-05T05:05:01.968Z,22.15
2022-08-05T05:07:32.691Z,22.18
2022-08-05T05:10:02.290Z,22.19
2022-08-05T05:12:30.527Z,22.21
2022-08-05T05:14:57.305Z,22.21
2022-08-05T05:17:56.974Z,22.24
2022-08-05T05:20:13.526Z,22.26
2022-08-05T05:22:43.945Z,22.28
2022-08-05T05:25:16.543Z,22.30
2022-08-05T05:27:48.801Z,22.33
2022-08-05T05:30:30.555Z,22.38
2022-08-05T05:33:08.804Z,22.42
2022-08-05T05:35:42.647Z,22.44
2022-08-05T05:38:13.172Z,22.50
2022-08-05T05:40:49.493Z,22.55
2022-08-05T05:43:54.399Z,22.60
2022-08-05T05:46:17.815Z,22.66
2022-08-05T05:48:48.297Z,22.71
2022-08-05T05:51:23.011Z,22.80
2022-08-05T05:53:57.345Z,22.85
2022-08-05T05:56:33.185Z,22.92
2022-08-05T05:59:07.523Z,22.98
2022-08-05T06:01:38.981Z,23.00
2022-08-05T06:04:12.852Z,23.08
2022-08-05T06:06:42.817Z,23.12
2022-08-05T06:09:17.292Z,23.18
2022-08-05T06:11:59.480Z,23.26
2022-08-05T06:14:28.873Z,23.33
2022-08-05T06:16:56.814Z,23.39
2022-08-05T06:19:35.106Z,23.44
2022-08-05T06:22:06.987Z,23.50
2022-08-05T06:24:35.151Z,23.55
2022-08-05T06:27:04.066Z,23.64
2022-08-05T06:29:46.724Z,23.73
2022-08-05T06:32:25.307Z,23.82
2022-08-05T06:34:56.581Z,23.96
2022-08-05T06:37:39.449Z,24.10
2022-08-05T06:40:13.865Z,24.27
2022-08-05T06:42:44.619Z,24.42
2022-08-05T06:45:20.704Z,24.54
2022-08-05T06:48:36.565Z,24.63
2022-08-05T06:50:35.386Z,24.73
2022-08-05T06:53:11.493Z,24.82
2022-08-05T06:55:41.916Z,24.91
2022-08-05T06:58:29.746Z,25.02
2022-08-05T07:01:01.275Z,25.11
2022-08-05T07:03:32.671Z,25.14
2022-08-05T07:05:59.957Z,25.26
2022-08-05T07:08:28.807Z,25.30
2022-08-05T07:10:55.895Z,25.40
2022-08-05T07:13:59.899Z,25.44
2022-08-05T07:18:00.012Z,25.51
2022-08-05T07:22:28.389Z,25.67
2022-08-05T07:25:22.065Z,25.77
2022-08-05T07:27:58.271Z,25.79
2022-08-05T07:30:34.476Z,25.85
2022-08-05T07:33:05.417Z,25.91
2022-08-05T07:36:05.227Z,26.00
2022-08-05T07:38:34.489Z,26.06
2022-08-05T07:42:07.317Z,26.04
2022-08-05T07:43:58.680Z,25.94
2022-08-05T07:46:28.033Z,25.99
2022-08-05T07:49:03.302Z,26.11
2022-08-05T07:51:48.893Z,26.13
2022-08-05T07:54:23.297Z,26.20
2022-08-05T07:57:14.690Z,26.27
2022-08-05T07:59:41.262Z,26.30
2022-08-05T08:02:15.737Z,26.39
2022-08-05T08:04:48.199Z,26.49
2022-08-05T08:07:15.769Z,26.60
2022-08-05T08:09:43.661Z,26.61
2022-08-05T08:12:37.319Z,26.68
2022-08-05T08:15:02.588Z,26.82
2022-08-05T08:17:32.568Z,26.93
2022-08-05T08:20:21.382Z,27.00
2022-08-05T08:22:57.742Z,27.16
2022-08-05T08:25:26.922Z,27.06
2022-08-05T08:28:18.438Z,26.96
2022-08-05T08:30:58.715Z,26.94
2022-08-05T08:33:25.538Z,27.02
2022-08-05T08:36:12.768Z,27.07
2022-08-05T08:38:41.754Z,27.14
2022-08-05T08:41:14.056Z,27.22
2022-08-05T08:45:18.248Z,27.31
2022-08-05T08:46:32.068Z,27.36
2022-08-05T08:49:08.244Z,27.41
2022-08-05T08:52:03.487Z,27.46
2022-08-05T08:54:34.150Z,27.38
2022-08-05T08:57:11.200Z,27.45
2022-08-05T08:59:38.982Z,27.58
2022-08-05T09:02:09.114Z,27.70
2022-08-05T09:04:57.892Z,27.80
2022-08-05T09:07:29.227Z,27.87
2022-08-05T09:10:07.059Z,27.84
2022-08-05T09:12:35.252Z,27.85
2022-08-05T09:15:06.537Z,27.89
2022-08-05T09:17:42.271Z,27.98
2022-08-05T09:20:11.788Z,28.04
2022-08-05T09:23:04.841Z,28.20
2022-08-05T09:26:02.328Z,28.21
2022-08-05T09:28:32.449Z,28.23
2022-08-05T09:31:23.542Z,28.34
2022-08-05T09:34:01.590Z,28.31
2022-08-05T09:36:55.697Z,28.42
2022-08-05T09:39:39.409Z,28.43
2022-08-05T09:42:24.084Z,28.68
2022-08-05T09:44:57.395Z,28.97
2022-08-05T09:47:48.030Z,29.15
2022-08-05T09:50:38.497Z,29.36
2022-08-05T09:53:07.295Z,29.49
2022-08-05T09:55:58.062Z,29.46
2022-08-05T09:58:23.846Z,29.24
2022-08-05T10:01:15.196Z,29.36
2022-08-05T10:04:16.222Z,29.38
2022-08-05T10:06:58.956Z,29.36
2022-08-05T10:09:29.586Z,29.24
2022-08-05T10:12:18.882Z,29.28
2022-08-05T10:15:27.609Z,29.47
2022-08-05T10:18:11.236Z,29.61
2022-08-05T10:20:52.744Z,29.63
2022-08-05T10:23:55.436Z,30.53
2022-08-05T10:26:14.340Z,31.33
2022-08-05T10:28:46.972Z,31.60
2022-08-05T10:32:51.958Z,31.81
2022-08-05T10:34:04.059Z,31.77
2022-08-05T10:36:36.669Z,32.56
2022-08-05T10:39:25.250Z,32.98
2022-08-05T10:42:11.831Z,33.58
2022-08-05T10:44:43.500Z,33.95
2022-08-05T10:47:25.903Z,34.16
2022-08-05T10:50:20.754Z,34.52
2022-08-05T10:53:01.125Z,33.17
2022-08-05T10:55:38.625Z,33.25
2022-08-05T10:58:17.969Z,33.62
2022-08-05T11:00:54.889Z,34.37
2022-08-05T11:03:24.624Z,33.85
2022-08-05T11:06:08.612Z,33.55
2022-08-05T11:09:16.690Z,32.54
2022-08-05T11:11:53.188Z,32.02
2022-08-05T11:15:11.571Z,32.61
2022-08-05T11:17:59.485Z,32.88
2022-08-05T11:20:55.319Z,33.46
2022-08-05T11:24:03.228Z,33.28
2022-08-05T11:26:43.160Z,33.95
2022-08-05T11:29:40.282Z,34.48
2022-08-05T11:32:27.939Z,34.79
2022-08-05T11:34:57.305Z,33.55
2022-08-05T11:38:28.778Z,33.24
2022-08-05T11:41:54.843Z,34.03
2022-08-05T11:44:11.604Z,33.66
2022-08-05T11:46:58.134Z,34.14
2022-08-05T11:49:37.189Z,34.34
2022-08-05T11:52:11.442Z,34.40
2022-08-05T11:54:40.329Z,33.86
2022-08-05T11:57:25.024Z,33.47
2022-08-05T11:59:54.787Z,33.07
2022-08-05T12:02:30.920Z,32.71
2022-08-05T12:05:07.987Z,32.33
2022-08-05T12:08:08.342Z,31.96
2022-08-05T12:10:43.072Z,31.72
2022-08-05T12:13:27.856Z,31.63
2022-08-05T12:16:17.611Z,31.57
2022-08-05T12:18:52.716Z,31.36
2022-08-05T12:21:32.098Z,31.61
2022-08-05T12:24:05.010Z,31.80
2022-08-05T12:26:44.025Z,32.19
2022-08-05T12:29:22.491Z,32.10
2022-08-05T12:31:53.435Z,31.87
2022-08-05T12:34:31.642Z,32.29
2022-08-05T12:37:10.761Z,33.44
2022-08-05T12:39:43.315Z,33.43
2022-08-05T12:42:20.789Z,33.82
2022-08-05T12:44:48.192Z,34.71
2022-08-05T12:47:27.552Z,35.14
2022-08-05T12:50:04.166Z,34.25
2022-08-05T12:52:39.177Z,34.28
2022-08-05T12:55:26.406Z,34.90
2022-08-05T12:58:50.287Z,35.76
2022-08-05T13:02:00.259Z,36.01
2022-08-05T13:03:43.076Z,36.52
2022-08-05T13:06:16.618Z,37.17
2022-08-05T13:08:50.799Z,37.93
2022-08-05T13:12:02.038Z,38.79
2022-08-05T13:14:24.762Z,39.13
2022-08-05T13:17:03.138Z,38.63
2022-08-05T13:19:40.367Z,38.46
2022-08-05T13:22:27.818Z,37.76
2022-08-05T13:24:58.101Z,37.44
2022-08-05T13:27:37.707Z,37.58
2022-08-05T13:30:34.451Z,36.91
2022-08-05T13:33:00.838Z,36.15
2022-08-05T13:35:31.429Z,35.65
2022-08-05T13:38:20.432Z,35.73
2022-08-05T13:40:57.184Z,36.19
2022-08-05T13:43:24.103Z,36.04
2022-08-05T13:46:11.712Z,36.23
2022-08-05T13:48:57.741Z,36.76
2022-08-05T13:51:36.478Z,36.50
2022-08-05T13:54:11.581Z,36.72
2022-08-05T13:56:44.992Z,37.36
2022-08-05T13:59:24.245Z,38.14
2022-08-05T14:01:56.917Z,38.57
2022-08-05T14:04:49.648Z,38.65
2022-08-05T14:07:25.823Z,38.51
2022-08-05T14:10:18.938Z,38.70
2022-08-05T14:12:55.381Z,38.12
2022-08-05T14:16:05.724Z,38.33
2022-08-05T14:18:17.584Z,38.14
2022-08-05T14:20:48.929Z,38.25
2022-08-05T14:23:24.970Z,38.11
2022-08-05T14:25:59.005Z,38.25
2022-08-05T14:28:30.044Z,38.28
2022-08-05T14:30:58.579Z,37.91
2022-08-05T14:33:25.709Z,37.81
2022-08-05T14:35:54.405Z,38.04
2022-08-05T14:38:32.682Z,37.81
2022-08-05T14:41:06.171Z,37.42
2022-08-05T14:43:57.434Z,36.80
2022-08-05T14:46:28.170Z,36.20
2022-08-05T14:48:59.528Z,36.06
2022-08-05T14:51:28.666Z,36.24
2022-08-05T14:54:26.306Z,36.10
2022-08-05T14:56:46.607Z,35.96
2022-08-05T14:59:15.733Z,35.92
2022-08-05T15:01:49.164Z,35.76
2022-08-05T15:04:20.513Z,35.69
2022-08-05T15:06:50.381Z,35.53
2022-08-05T15:09:52.533Z,35.75
2022-08-05T15:12:09.524Z,35.89
2022-08-05T15:14:48.436Z,36.09
2022-08-05T15:17:45.059Z,36.16
2022-08-05T15:20:05.207Z,36.06
2022-08-05T15:22:32.796Z,35.83
2022-08-05T15:25:00.561Z,35.54
2022-08-05T15:27:38.940Z,34.93
2022-08-05T15:30:11.056Z,34.37
2022-08-05T15:32:41.129Z,33.70
2022-08-05T15:35:10.650Z,32.86
2022-08-05T15:38:34.260Z,32.33
2022-08-05T15:41:04.792Z,31.69
2022-08-05T15:43:20.553Z,31.13
2022-08-05T15:46:00.088Z,30.69
2022-08-05T15:48:28.394Z,30.45
2022-08-05T15:50:55.331Z,30.22
2022-08-05T15:53:26.598Z,30.00
2022-08-05T15:56:13.395Z,29.86
2022-08-05T15:58:41.293Z,29.66
2022-08-05T16:01:16.173Z,29.55
2022-08-05T16:03:50.243Z,29.40
2022-08-05T16:06:20.377Z,29.33
2022-08-05T16:08:50.294Z,29.20
2022-08-05T16:11:21.051Z,29.08
2022-08-05T16:14:05.613Z,28.95
2022-08-05T16:16:33.334Z,28.90
2022-08-05T16:19:00.245Z,28.85
2022-08-05T16:22:00.588Z,28.79
2022-08-05T16:24:40.424Z,28.69
2022-08-05T16:27:03.459Z,28.64
2022-08-05T16:29:31.365Z,28.57
2022-08-05T16:32:06.529Z,28.49
2022-08-05T16:34:36.890Z,28.44
2022-08-05T16:38:03.293Z,28.38
2022-08-05T16:40:04.800Z,28.30
2022-08-05T16:42:34.584Z,28.25
2022-08-05T16:45:02.380Z,28.21
2022-08-05T16:47:55.499Z,28.17
2022-08-05T16:50:25.525Z,28.10
2022-08-05T16:52:52.787Z,28.07
2022-08-05T16:55:23.333Z,28.02
2022-08-05T16:58:00.031Z,27.96
2022-08-05T17:00:35.119Z,27.86
2022-08-05T17:03:13.297Z,27.75
2022-08-05T17:05:51.517Z,27.60
2022-08-05T17:08:35.903Z,27.47
2022-08-05T17:11:12.820Z,27.31
2022-08-05T17:13:44.480Z,27.13
2022-08-05T17:16:32.646Z,26.98
2022-08-05T17:18:58.902Z,26.83
2022-08-05T17:21:25.701Z,26.73
2022-08-05T17:24:04.936Z,26.60
2022-08-05T17:26:36.370Z,26.44
2022-08-05T17:29:07.531Z,26.33
2022-08-05T17:31:56.873Z,26.21
2022-08-05T17:34:29.920Z,26.05
2022-08-05T17:36:59.835Z,25.89
2022-08-05T17:39:34.039Z,25.76
2022-08-05T17:42:17.616Z,25.62
2022-08-05T17:44:51.185Z,25.49
2022-08-05T17:47:22.989Z,25.43
2022-08-05T17:50:03.843Z,25.28
2022-08-05T17:52:53.411Z,25.17
2022-08-05T17:55:22.885Z,25.04
2022-08-05T17:58:02.603Z,24.95
2022-08-05T18:00:29.915Z,24.87
2022-08-05T18:02:57.100Z,24.80
2022-08-05T18:05:24.291Z,24.71
2022-08-05T18:07:56.736Z,24.65
2022-08-05T18:10:23.936Z,24.56
2022-08-05T18:12:51.426Z,24.49
2022-08-05T18:15:18.332Z,24.43
2022-08-05T18:17:58.889Z,24.36
2022-08-05T18:20:31.891Z,24.26
2022-08-05T18:23:00.641Z,24.15
2022-08-05T18:25:39.251Z,24.10
2022-08-05T18:28:07.498Z,24.04
2022-08-05T18:30:38.878Z,23.98
2022-08-05T18:33:06.362Z,23.90
2022-08-05T18:35:59.972Z,23.80
2022-08-05T18:38:25.920Z,23.71
2022-08-05T18:41:53.191Z,23.66
2022-08-05T18:43:42.594Z,23.62
2022-08-05T18:46:10.568Z,23.58
2022-08-05T18:48:41.491Z,23.54
2022-08-05T18:52:06.402Z,23.51
2022-08-05T18:54:15.113Z,23.40
2022-08-05T18:56:51.307Z,23.34
2022-08-05T18:59:43.924Z,23.28
2022-08-05T19:02:11.337Z,23.20
2022-08-05T19:05:01.795Z,23.14
2022-08-05T19:07:45.625Z,23.05
2022-08-05T19:10:15.056Z,23.03
2022-08-05T19:12:43.209Z,22.98
2022-08-05T19:15:54.721Z,22.95
2022-08-05T19:18:08.507Z,22.92
2022-08-05T19:20:37.154Z,22.90
2022-08-05T19:23:08.785Z,22.86
2022-08-05T19:26:02.102Z,22.86
2022-08-05T19:28:32.774Z,22.83
2022-08-05T19:31:00.907Z,22.81
2022-08-05T19:33:35.136Z,22.80
2022-08-05T19:36:09.083Z,22.77
2022-08-05T19:38:36.601Z,22.75
2022-08-05T19:41:06.973Z,22.74
2022-08-05T19:44:05.375Z,22.73
2022-08-05T19:46:29.713Z,22.64
2022-08-05T19:49:00.858Z,22.60
2022-08-05T19:52:05.732Z,22.52
2022-08-05T19:54:21.832Z,22.48
2022-08-05T19:56:54.473Z,22.47
2022-08-05T20:00:00.732Z,22.44
2022-08-05T20:02:08.480Z,22.37
2022-08-05T20:04:35.550Z,22.29
2022-08-05T20:07:03.569Z,22.23
2022-08-05T20:09:55.062Z,22.19
2022-08-05T20:12:25.038Z,22.10
2022-08-05T20:14:53.084Z,22.06
2022-08-05T20:17:23.294Z,22.07
2022-08-05T20:19:56.623Z,22.02
2022-08-05T20:22:27.225Z,21.99
2022-08-05T20:24:55.386Z,21.93
2022-08-05T20:27:26.714Z,21.87
2022-08-05T20:29:58.916Z,21.88
2022-08-05T20:32:26.892Z,21.95
2022-08-05T20:34:54.495Z,21.74
2022-08-05T20:38:04.964Z,21.72
2022-08-05T20:40:09.164Z,21.64
2022-08-05T20:42:36.173Z,21.57
2022-08-05T20:45:04.688Z,21.52
2022-08-05T20:47:32.864Z,21.48
2022-08-05T20:50:02.137Z,21.43
2022-08-05T20:52:31.458Z,21.38
2022-08-05T20:55:58.960Z,21.36
2022-08-05T20:57:45.923Z,21.36
2022-08-05T21:00:36.397Z,21.32
2022-08-05T21:03:06.336Z,21.28
2022-08-05T21:05:47.637Z,21.28
2022-08-05T21:08:26.430Z,21.27
2022-08-05T21:10:55.205Z,21.21
2022-08-05T21:13:37.859Z,21.20
2022-08-05T21:16:12.554Z,21.16
2022-08-05T21:18:42.999Z,21.16
2022-08-05T21:21:12.051Z,21.14
2022-08-05T21:23:39.136Z,21.10
2022-08-05T21:26:08.340Z,21.06
2022-08-05T21:28:40.649Z,21.00
2022-08-05T21:31:14.913Z,20.97
2022-08-05T21:33:43.546Z,20.96
2022-08-05T21:36:27.542Z,20.90
2022-08-05T21:38:57.285Z,20.91
2022-08-05T21:41:26.064Z,20.88
2022-08-05T21:44:04.066Z,20.86
2022-08-05T21:46:34.443Z,20.83
2022-08-05T21:49:04.750Z,20.83
2022-08-05T21:52:21.971Z,20.83
2022-08-05T21:54:30.883Z,20.83
2022-08-05T21:57:28.467Z,20.89
2022-08-05T22:00:03.382Z,20.88
2022-08-05T22:02:32.786Z,20.90
2022-08-05T22:05:00.628Z,20.91
2022-08-05T22:07:40.228Z,20.88
2022-08-05T22:10:17.341Z,20.86
2022-08-05T22:12:53.897Z,20.82
2022-08-05T22:15:56.412Z,20.78
2022-08-05T22:18:08.600Z,20.74
2022-08-05T22:20:38.993Z,20.69
2022-08-05T22:24:02.453Z,20.66
2022-08-05T22:26:31.172Z,20.63
2022-08-05T22:28:58.153Z,20.56
2022-08-05T22:31:25.115Z,20.54
2022-08-05T22:34:01.221Z,20.52
2022-08-05T22:36:29.030Z,20.48
2022-08-05T22:38:56.708Z,20.47
2022-08-05T22:41:26.200Z,20.43
2022-08-05T22:44:12.085Z,20.38
2022-08-05T22:46:40.977Z,20.36
2022-08-05T22:49:23.418Z,20.35
2022-08-05T22:52:06.018Z,20.34
2022-08-05T22:54:38.791Z,20.37
2022-08-05T22:57:06.503Z,20.32
2022-08-05T22:59:48.411Z,20.32
2022-08-05T23:02:29.234Z,20.32
2022-08-05T23:05:01.505Z,20.28
2022-08-05T23:07:31.626Z,20.24
2022-08-05T23:10:01.490Z,20.24
2022-08-05T23:12:32.576Z,20.21
2022-08-05T23:15:03.521Z,20.21
2022-08-05T23:17:37.576Z,20.17
2022-08-05T23:20:16.616Z,20.16
2022-08-05T23:22:48.368Z,20.11
2022-08-05T23:25:51.179Z,20.10
2022-08-05T23:28:07.620Z,20.08
2022-08-05T23:30:39.638Z,20.07
2022-08-05T23:33:22.554Z,20.08
2022-08-05T23:35:56.117Z,20.09
2022-08-05T23:38:24.157Z,20.11
2022-08-05T23:40:52.599Z,20.15
2022-08-05T23:43:25.779Z,20.15
2022-08-05T23:46:20.888Z,20.16
2022-08-05T23:49:01.228Z,20.18
2022-08-05T23:51:54.181Z,20.21
2022-08-05T23:54:29.951Z,20.20
2022-08-05T23:57:03.355Z,20.16
